createdAt,value
2018-03-16T00:00:15.890Z,18.98
2018-03-16T00:02:43.457Z,19.58
2018-03-16T00:05:10.971Z,18.33
2018-03-16T00:07:38.574Z,16.40
2018-03-16T00:10:06.069Z,17.08
2018-03-16T00:12:34.388Z,17.45
2018-03-16T00:15:02.681Z,18.00
2018-03-16T00:17:30.209Z,19.37
2018-03-16T00:19:57.716Z,19.08
2018-03-16T00:22:37.407Z,17.23
2018-03-16T00:25:04.905Z,19.08
2018-03-16T00:27:33.179Z,17.37
2018-03-16T00:30:01.465Z,18.10
2018-03-16T00:32:29.761Z,18.73
2018-03-16T00:34:57.359Z,18.75
2018-03-16T00:37:24.919Z,18.45
2018-03-16T00:39:52.425Z,20.05
2018-03-16T00:42:20.697Z,16.75
2018-03-16T00:44:48.629Z,17.48
2018-03-16T00:47:16.165Z,18.65
2018-03-16T00:49:43.669Z,16.90
2018-03-16T00:52:11.194Z,17.17
2018-03-16T00:54:39.504Z,16.25
2018-03-16T00:57:07.738Z,16.77
2018-03-16T00:59:36.025Z,14.93
2018-03-16T01:02:04.296Z,15.85
2018-03-16T01:04:32.603Z,18.58
2018-03-16T01:07:00.110Z,17.55
2018-03-16T01:09:27.628Z,16.35
2018-03-16T01:11:55.121Z,19.05
2018-03-16T01:14:22.629Z,18.42
2018-03-16T01:16:50.891Z,16.95
2018-03-16T01:19:18.420Z,17.55
2018-03-16T01:21:45.979Z,18.25
2018-03-16T01:24:13.505Z,19.23
2018-03-16T01:26:41.779Z,17.95
2018-03-16T01:29:09.401Z,16.67
2018-03-16T01:31:36.891Z,15.90
2018-03-16T01:34:04.402Z,17.65
2018-03-16T01:36:31.961Z,14.93
2018-03-16T01:38:59.477Z,15.65
2018-03-16T01:41:26.984Z,15.07
2018-03-16T01:43:54.509Z,14.10
2018-03-16T01:46:21.991Z,14.32
2018-03-16T01:48:50.281Z,13.65
2018-03-16T01:51:17.802Z,14.10
2018-03-16T01:53:45.361Z,13.75
2018-03-16T01:56:12.851Z,12.70
2018-03-16T01:58:40.415Z,13.32
2018-03-16T02:01:07.919Z,12.07
2018-03-16T02:03:35.420Z,10.27
2018-03-16T02:06:02.908Z,12.95
2018-03-16T02:08:30.438Z,11.82
2018-03-16T02:10:57.968Z,12.00
2018-03-16T02:13:25.770Z,10.70
2018-03-16T02:15:53.258Z,10.15
2018-03-16T02:18:20.759Z,10.88
2018-03-16T02:20:48.271Z,11.18
2018-03-16T02:23:15.778Z,10.07
2018-03-16T02:25:44.047Z,10.98
2018-03-16T02:28:12.298Z,7.28
2018-03-16T02:30:39.796Z,9.93
2018-03-16T02:33:07.302Z,9.52
2018-03-16T02:35:34.823Z,9.57
2018-03-16T02:38:03.395Z,9.95
2018-03-16T02:40:31.670Z,9.05
2018-03-16T02:42:59.165Z,9.25
2018-03-16T02:45:26.714Z,9.95
2018-03-16T02:47:54.979Z,9.85
2018-03-16T02:50:22.485Z,9.35
2018-03-16T02:52:50.023Z,10.10
2018-03-16T02:55:18.309Z,10.25
2018-03-16T02:57:46.572Z,9.20
2018-03-16T03:00:14.894Z,11.05
2018-03-16T03:02:42.405Z,9.57
2018-03-16T03:05:09.927Z,9.65
2018-03-16T03:07:37.564Z,11.00
2018-03-16T03:10:05.837Z,11.70
2018-03-16T03:12:33.361Z,11.77
2018-03-16T03:15:00.891Z,9.65
2018-03-16T03:17:28.408Z,11.45
2018-03-16T03:19:55.979Z,10.90
2018-03-16T03:22:23.497Z,10.88
2018-03-16T03:24:51.021Z,10.80
2018-03-16T03:27:19.308Z,11.52
2018-03-16T03:29:46.859Z,11.15
2018-03-16T03:32:15.250Z,10.13
2018-03-16T03:34:43.592Z,12.05
2018-03-16T03:37:11.083Z,12.07
2018-03-16T03:39:39.341Z,10.95
2018-03-16T03:42:06.838Z,11.07
2018-03-16T03:44:35.118Z,12.45
2018-03-16T03:47:03.397Z,10.30
2018-03-16T03:49:31.654Z,10.38
2018-03-16T03:51:59.164Z,11.75
2018-03-16T03:54:26.687Z,10.65
2018-03-16T03:56:54.217Z,10.25
2018-03-16T03:59:22.409Z,9.95
2018-03-16T04:01:49.928Z,12.02
2018-03-16T04:04:17.459Z,10.20
2018-03-16T04:06:45.016Z,10.77
2018-03-16T04:09:12.510Z,11.85
2018-03-16T04:11:40.865Z,11.77
2018-03-16T04:14:08.367Z,10.20
2018-03-16T04:16:35.881Z,12.55
2018-03-16T04:19:03.368Z,9.23
2018-03-16T04:21:31.645Z,9.70
2018-03-16T04:23:59.173Z,11.35
2018-03-16T04:26:26.670Z,11.50
2018-03-16T04:28:54.173Z,11.25
2018-03-16T04:31:21.694Z,10.65
2018-03-16T04:33:49.240Z,10.95
2018-03-16T04:36:16.747Z,11.70
2018-03-16T04:38:44.299Z,11.27
2018-03-16T04:41:11.858Z,10.57
2018-03-16T04:43:40.127Z,9.32
2018-03-16T04:46:07.622Z,11.60
2018-03-16T04:48:35.887Z,11.52
2018-03-16T04:51:04.178Z,10.35
2018-03-16T04:53:32.440Z,10.60
2018-03-16T04:56:00.935Z,9.40
2018-03-16T04:58:30.503Z,11.00
2018-03-16T05:00:58.023Z,12.15
2018-03-16T05:03:25.552Z,10.38
2018-03-16T05:05:53.108Z,11.18
2018-03-16T05:08:20.603Z,11.15
2018-03-16T05:10:48.891Z,10.80
2018-03-16T05:13:17.147Z,11.63
2018-03-16T05:15:44.769Z,11.15
2018-03-16T05:18:12.310Z,9.98
2018-03-16T05:20:39.816Z,10.45
2018-03-16T05:23:07.329Z,12.15
2018-03-16T05:25:35.597Z,10.60
2018-03-16T05:28:03.867Z,10.40
2018-03-16T05:30:32.169Z,10.82
2018-03-16T05:33:00.454Z,9.68
2018-03-16T05:35:27.996Z,11.75
2018-03-16T05:37:55.507Z,10.65
2018-03-16T05:40:22.999Z,9.40
2018-03-16T05:42:50.517Z,11.55
2018-03-16T05:45:18.012Z,11.30
2018-03-16T05:47:45.526Z,10.98
2018-03-16T05:50:13.898Z,12.05
2018-03-16T05:52:41.403Z,11.38
2018-03-16T05:55:08.895Z,10.52
2018-03-16T05:57:36.425Z,10.30
2018-03-16T06:00:03.934Z,10.90
2018-03-16T06:02:31.446Z,11.07
2018-03-16T06:04:58.931Z,9.60
2018-03-16T06:07:26.496Z,9.98
2018-03-16T06:09:53.998Z,10.57
2018-03-16T06:12:22.324Z,9.70
2018-03-16T06:14:49.826Z,9.38
2018-03-16T06:17:18.856Z,9.63
2018-03-16T06:19:47.121Z,10.73
2018-03-16T06:22:14.636Z,10.68
2018-03-16T06:24:42.258Z,9.85
2018-03-16T06:27:10.621Z,8.88
2018-03-16T06:29:38.120Z,8.98
2018-03-16T06:32:06.384Z,8.15
2018-03-16T06:34:34.655Z,9.70
2018-03-16T06:37:02.942Z,9.25
2018-03-16T06:39:31.269Z,10.20
2018-03-16T06:41:58.774Z,9.07
2018-03-16T06:44:26.270Z,9.77
2018-03-16T06:46:53.810Z,7.80
2018-03-16T06:49:21.314Z,6.45
2018-03-16T06:51:48.812Z,7.37
2018-03-16T06:54:16.320Z,8.95
2018-03-16T06:56:43.838Z,8.38
2018-03-16T06:59:11.323Z,9.00
2018-03-16T07:01:38.835Z,8.02
2018-03-16T07:04:06.335Z,10.13
2018-03-16T07:06:33.852Z,8.82
2018-03-16T07:09:01.364Z,8.50
2018-03-16T07:11:28.867Z,7.95
2018-03-16T07:13:56.530Z,8.32
2018-03-16T07:16:24.019Z,7.55
2018-03-16T07:18:51.547Z,8.32
2018-03-16T07:21:19.820Z,8.40
2018-03-16T07:23:48.115Z,7.22
2018-03-16T07:26:16.377Z,7.03
2018-03-16T07:28:44.645Z,6.37
2018-03-16T07:31:12.176Z,7.32
2018-03-16T07:33:39.695Z,7.30
2018-03-16T07:36:07.972Z,7.25
2018-03-16T07:38:36.244Z,6.68
2018-03-16T07:41:04.504Z,6.75
2018-03-16T07:43:32.012Z,6.97
2018-03-16T07:46:03.130Z,6.90
2018-03-16T07:48:31.410Z,6.85
2018-03-16T07:50:58.890Z,7.18
2018-03-16T07:53:27.173Z,6.15
2018-03-16T07:55:55.444Z,6.50
2018-03-16T07:58:23.001Z,7.40
2018-03-16T08:00:51.469Z,6.12
2018-03-16T08:03:18.976Z,6.35
2018-03-16T08:05:47.276Z,7.28
2018-03-16T08:08:14.970Z,6.20
2018-03-16T08:10:42.455Z,6.25
2018-03-16T08:13:10.072Z,7.50
2018-03-16T08:15:37.580Z,6.15
2018-03-16T08:18:05.097Z,7.40
2018-03-16T08:20:32.612Z,6.97
2018-03-16T08:23:00.106Z,7.30
2018-03-16T08:25:27.595Z,7.15
2018-03-16T08:27:55.620Z,7.03
2018-03-16T08:30:23.119Z,6.53
2018-03-16T08:32:50.627Z,6.95
2018-03-16T08:35:18.134Z,6.22
2018-03-16T08:37:45.674Z,5.72
2018-03-16T08:40:13.465Z,5.85
2018-03-16T08:42:41.029Z,7.05
2018-03-16T08:45:09.278Z,6.10
2018-03-16T08:47:36.787Z,6.45
2018-03-16T08:50:04.325Z,5.15
2018-03-16T08:52:32.571Z,7.15
2018-03-16T08:55:00.076Z,6.15
2018-03-16T08:57:28.333Z,6.05
2018-03-16T08:59:56.641Z,6.28
2018-03-16T09:02:24.140Z,5.35
2018-03-16T09:04:51.679Z,6.28
2018-03-16T09:07:19.212Z,6.53
2018-03-16T09:09:46.848Z,6.90
2018-03-16T09:12:14.382Z,7.05
2018-03-16T09:14:41.899Z,6.55
2018-03-16T09:17:09.397Z,5.60
2018-03-16T09:19:36.904Z,7.05
2018-03-16T09:22:04.382Z,5.15
2018-03-16T09:24:32.078Z,6.50
2018-03-16T09:27:00.408Z,5.80
2018-03-16T09:29:27.916Z,5.80
2018-03-16T09:31:56.163Z,6.62
2018-03-16T09:34:23.776Z,6.07
2018-03-16T09:36:51.310Z,5.60
2018-03-16T09:39:18.828Z,5.43
2018-03-16T09:41:46.312Z,7.10
2018-03-16T09:44:13.819Z,5.15
2018-03-16T09:46:42.101Z,5.72
2018-03-16T09:49:10.409Z,6.18
2018-03-16T09:51:37.932Z,5.18
2018-03-16T09:54:06.243Z,6.60
2018-03-16T09:56:34.516Z,6.93
2018-03-16T09:59:02.012Z,5.50
2018-03-16T10:01:29.949Z,4.57
2018-03-16T10:03:57.446Z,4.90
2018-03-16T10:06:24.932Z,5.05
2018-03-16T10:08:52.460Z,5.75
2018-03-16T10:11:19.993Z,5.62
2018-03-16T10:13:47.502Z,5.93
2018-03-16T10:16:15.036Z,6.10
2018-03-16T10:18:42.648Z,5.32
2018-03-16T10:21:10.182Z,6.32
2018-03-16T10:23:37.681Z,6.10
2018-03-16T10:26:05.818Z,6.25
2018-03-16T10:28:33.310Z,6.40
2018-03-16T10:31:00.797Z,4.15
2018-03-16T10:33:28.315Z,6.10
2018-03-16T10:35:55.844Z,5.60
2018-03-16T10:38:24.106Z,6.35
2018-03-16T10:40:52.362Z,5.03
2018-03-16T10:43:19.873Z,6.53
2018-03-16T10:45:48.142Z,6.93
2018-03-16T10:48:16.469Z,5.47
2018-03-16T10:50:44.268Z,5.05
2018-03-16T10:53:11.768Z,4.70
2018-03-16T10:55:39.285Z,5.35
2018-03-16T10:58:08.489Z,6.78
2018-03-16T11:00:41.612Z,6.20
2018-03-16T11:03:14.788Z,5.12
2018-03-16T11:05:48.786Z,6.25
2018-03-16T11:08:22.159Z,5.95
2018-03-16T11:10:49.668Z,7.87
2018-03-16T11:13:17.940Z,7.20
2018-03-16T11:15:46.264Z,4.45
2018-03-16T11:18:13.804Z,6.80
2018-03-16T11:20:42.166Z,7.05
2018-03-16T11:23:09.742Z,7.72
2018-03-16T11:25:37.352Z,6.85
2018-03-16T11:28:04.856Z,6.50
2018-03-16T11:30:32.995Z,7.47
2018-03-16T11:33:00.555Z,5.82
2018-03-16T11:35:28.073Z,6.18
2018-03-16T11:37:56.336Z,7.30
2018-03-16T11:40:23.866Z,6.78
2018-03-16T11:42:51.378Z,6.28
2018-03-16T11:45:18.907Z,8.20
2018-03-16T11:47:46.428Z,7.30
2018-03-16T11:50:14.733Z,7.50
2018-03-16T11:52:42.236Z,8.23
2018-03-16T11:55:10.368Z,8.23
2018-03-16T11:57:37.886Z,7.80
2018-03-16T12:02:28.446Z,8.07
2018-03-16T12:04:55.956Z,8.15
2018-03-16T12:07:23.462Z,9.05
2018-03-16T12:09:51.970Z,7.70
2018-03-16T12:12:19.483Z,8.52
2018-03-16T12:14:46.988Z,8.85
2018-03-16T12:17:14.725Z,8.02
2018-03-16T12:19:42.239Z,8.38
2018-03-16T12:22:09.728Z,7.90
2018-03-16T12:24:37.236Z,9.00
2018-03-16T12:27:05.500Z,8.88
2018-03-16T12:29:33.884Z,8.95
2018-03-16T12:32:01.369Z,8.40
2018-03-16T12:34:28.861Z,8.13
2018-03-16T12:36:56.430Z,7.85
2018-03-16T12:39:23.950Z,8.82
2018-03-16T12:41:52.252Z,9.23
2018-03-16T12:44:19.780Z,8.63
2018-03-16T12:46:47.275Z,7.68
2018-03-16T12:49:14.764Z,7.25
2018-03-16T12:51:42.433Z,8.13
2018-03-16T12:54:09.826Z,8.55
2018-03-16T12:56:37.350Z,8.57
2018-03-16T12:59:04.837Z,7.87
2018-03-16T13:01:32.340Z,7.75
2018-03-16T13:03:59.849Z,7.47
2018-03-16T13:06:27.352Z,8.77
2018-03-16T13:08:55.606Z,7.32
2018-03-16T13:11:23.114Z,7.32
2018-03-16T13:13:50.769Z,7.30
2018-03-16T13:16:19.046Z,6.80
2018-03-16T13:18:47.298Z,7.30
2018-03-16T13:21:16.645Z,6.82
2018-03-16T13:23:44.248Z,7.37
2018-03-16T13:26:11.882Z,7.55
2018-03-16T13:28:39.398Z,7.07
2018-03-16T13:31:06.978Z,7.07
2018-03-16T13:33:34.523Z,7.30
2018-03-16T13:36:02.065Z,6.72
2018-03-16T13:38:29.610Z,6.40
2018-03-16T13:40:57.132Z,7.05
2018-03-16T13:43:25.418Z,6.95
2018-03-16T13:45:53.061Z,7.40
2018-03-16T13:48:20.608Z,6.32
2018-03-16T13:50:48.144Z,6.82
2018-03-16T13:53:15.679Z,7.05
2018-03-16T13:55:43.964Z,6.00
2018-03-16T13:58:12.284Z,5.95
2018-03-16T14:00:39.794Z,6.87
2018-03-16T14:03:07.378Z,6.43
2018-03-16T14:05:35.650Z,5.55
2018-03-16T14:08:03.976Z,5.80
2018-03-16T14:10:31.602Z,6.10
2018-03-16T14:12:59.882Z,6.68
2018-03-16T14:15:28.143Z,5.62
2018-03-16T14:17:55.716Z,6.68
2018-03-16T14:20:24.026Z,6.55
2018-03-16T14:22:52.336Z,6.65
2018-03-16T14:25:19.864Z,5.75
2018-03-16T14:27:47.371Z,5.82
2018-03-16T14:30:14.881Z,5.40
2018-03-16T14:32:43.150Z,6.03
2018-03-16T14:35:11.404Z,5.18
2018-03-16T14:37:38.946Z,6.65
2018-03-16T14:40:06.498Z,6.15
2018-03-16T14:42:34.046Z,5.93
2018-03-16T14:45:02.314Z,7.35
2018-03-16T14:47:30.610Z,5.65
2018-03-16T14:49:58.900Z,6.68
2018-03-16T14:52:26.398Z,6.70
2018-03-16T14:54:53.925Z,6.40
2018-03-16T14:57:21.450Z,6.50
2018-03-16T14:59:48.998Z,6.35
2018-03-16T15:02:16.542Z,4.70
2018-03-16T15:04:44.054Z,5.70
2018-03-16T15:07:11.612Z,4.90
2018-03-16T15:09:39.230Z,5.75
2018-03-16T15:12:06.824Z,5.82
2018-03-16T15:14:34.390Z,5.53
2018-03-16T15:17:03.862Z,5.82
2018-03-16T15:19:31.375Z,5.45
2018-03-16T15:21:58.964Z,6.22
2018-03-16T15:24:27.282Z,5.53
2018-03-16T15:26:54.842Z,4.65
2018-03-16T15:29:22.415Z,4.53
2018-03-16T15:31:50.139Z,4.60
2018-03-16T15:34:18.434Z,6.03
2018-03-16T15:36:45.923Z,4.53
2018-03-16T15:39:13.440Z,5.00
2018-03-16T15:41:41.080Z,5.12
2018-03-16T15:44:08.596Z,4.20
2018-03-16T15:46:36.114Z,4.07
2018-03-16T15:49:03.634Z,3.83
2018-03-16T15:51:31.164Z,4.05
2018-03-16T15:53:58.720Z,3.17
2018-03-16T15:56:26.997Z,3.53
2018-03-16T15:58:55.300Z,4.28
2018-03-16T16:01:22.826Z,4.50
2018-03-16T16:03:50.342Z,3.78
2018-03-16T16:06:17.862Z,3.85
2018-03-16T16:08:46.152Z,3.95
2018-03-16T16:11:13.649Z,4.20
2018-03-16T16:13:41.171Z,3.72
2018-03-16T16:16:08.678Z,3.70
2018-03-16T16:18:36.329Z,4.00
2018-03-16T16:21:04.332Z,3.97
2018-03-16T16:23:31.871Z,4.55
2018-03-16T16:25:59.518Z,4.18
2018-03-16T16:28:27.810Z,4.15
2018-03-16T16:30:56.142Z,3.30
2018-03-16T16:33:23.634Z,3.72
2018-03-16T16:35:51.125Z,4.10
2018-03-16T16:38:18.794Z,4.40
2018-03-16T16:40:47.228Z,4.55
2018-03-16T16:43:14.713Z,3.37
2018-03-16T16:45:43.037Z,3.72
2018-03-16T16:48:10.546Z,4.00
2018-03-16T16:50:38.044Z,3.83
2018-03-16T16:53:05.930Z,3.70
2018-03-16T16:55:33.518Z,4.65
2018-03-16T16:58:01.022Z,3.42
2018-03-16T17:00:28.600Z,4.10
2018-03-16T17:02:56.880Z,4.10
2018-03-16T17:05:24.406Z,3.33
2018-03-16T17:07:52.618Z,3.15
2018-03-16T17:10:21.408Z,3.95
2018-03-16T17:12:49.666Z,3.03
2018-03-16T17:15:17.189Z,3.85
2018-03-16T17:17:44.734Z,3.60
2018-03-16T17:20:12.386Z,3.80
2018-03-16T17:22:40.665Z,4.60
2018-03-16T17:25:09.022Z,3.10
2018-03-16T17:27:36.516Z,3.67
2018-03-16T17:30:04.782Z,3.90
2018-03-16T17:32:33.109Z,3.62
2018-03-16T17:35:03.199Z,2.83
2018-03-16T17:37:31.669Z,2.87
2018-03-16T17:40:00.049Z,3.40
2018-03-16T17:42:27.602Z,3.40
2018-03-16T17:44:55.118Z,3.78
2018-03-16T17:47:22.634Z,3.60
2018-03-16T17:49:50.981Z,4.40
2018-03-16T17:52:18.476Z,3.50
2018-03-16T17:54:45.977Z,2.90
2018-03-16T17:57:14.126Z,3.60
2018-03-16T17:59:41.632Z,3.40
2018-03-16T18:02:09.178Z,3.22
2018-03-16T18:04:37.451Z,3.40
2018-03-16T18:07:05.770Z,3.17
2018-03-16T18:09:34.013Z,3.67
2018-03-16T18:12:02.274Z,3.28
2018-03-16T18:14:30.658Z,2.78
2018-03-16T18:16:58.254Z,3.45
2018-03-16T18:19:25.835Z,3.65
2018-03-16T18:21:53.342Z,2.50
2018-03-16T18:24:20.832Z,3.53
2018-03-16T18:26:49.111Z,1.95
2018-03-16T18:29:17.378Z,2.70
2018-03-16T18:31:44.991Z,3.53
2018-03-16T18:34:13.380Z,3.17
2018-03-16T18:36:40.888Z,3.20
2018-03-16T18:39:09.884Z,3.10
2018-03-16T18:41:37.386Z,3.62
2018-03-16T18:44:04.987Z,3.47
2018-03-16T18:46:32.583Z,3.15
2018-03-16T18:49:00.081Z,3.60
2018-03-16T18:51:27.834Z,3.40
2018-03-16T18:53:56.149Z,3.80
2018-03-16T18:56:23.672Z,3.40
2018-03-16T18:58:51.977Z,3.15
2018-03-16T19:01:19.482Z,4.07
2018-03-16T19:03:47.067Z,2.70
2018-03-16T19:06:14.595Z,3.40
2018-03-16T19:08:42.107Z,3.80
2018-03-16T19:11:10.554Z,3.53
2018-03-16T19:13:38.070Z,3.30
2018-03-16T19:16:05.582Z,3.22
2018-03-16T19:18:33.063Z,3.10
2018-03-16T19:21:00.582Z,3.22
2018-03-16T19:23:28.158Z,2.87
2018-03-16T19:25:55.708Z,3.53
2018-03-16T19:28:23.210Z,2.72
2018-03-16T19:30:50.726Z,3.17
2018-03-16T19:33:18.221Z,2.92
2018-03-16T19:35:45.741Z,2.58
2018-03-16T19:38:13.259Z,3.00
2018-03-16T19:40:40.836Z,2.47
2018-03-16T19:43:08.343Z,2.95
2018-03-16T19:45:35.842Z,3.05
2018-03-16T19:48:03.370Z,2.30
2018-03-16T19:50:30.893Z,2.50
2018-03-16T19:52:58.457Z,3.12
2018-03-16T19:55:26.833Z,3.85
2018-03-16T19:57:55.119Z,1.92
2018-03-16T20:00:22.679Z,2.70
2018-03-16T20:02:50.326Z,2.53
2018-03-16T20:05:17.917Z,2.80
2018-03-16T20:07:45.793Z,2.60
2018-03-16T20:10:14.343Z,2.70
2018-03-16T20:12:41.957Z,2.60
2018-03-16T20:15:11.055Z,1.90
2018-03-16T20:17:39.420Z,2.62
2018-03-16T20:20:06.934Z,2.92
2018-03-16T20:22:34.470Z,2.35
2018-03-16T20:25:02.893Z,2.53
2018-03-16T20:27:31.185Z,2.00
2018-03-16T20:29:58.687Z,2.30
2018-03-16T20:32:26.973Z,3.28
2018-03-16T20:34:55.250Z,2.60
2018-03-16T20:37:23.537Z,2.45
2018-03-16T20:39:51.041Z,2.28
2018-03-16T20:42:18.896Z,2.33
2018-03-16T20:44:46.414Z,2.47
2018-03-16T20:47:13.945Z,2.33
2018-03-16T20:49:41.599Z,2.65
2018-03-16T20:52:09.108Z,2.05
2018-03-16T20:54:36.821Z,2.10
2018-03-16T20:57:04.330Z,2.33
2018-03-16T20:59:31.856Z,2.95
2018-03-16T21:01:59.378Z,2.25
2018-03-16T21:04:26.934Z,2.00
2018-03-16T21:06:54.448Z,2.00
2018-03-16T21:09:21.971Z,2.60
2018-03-16T21:11:49.489Z,3.15
2018-03-16T21:14:17.081Z,2.72
2018-03-16T21:16:44.573Z,2.60
2018-03-16T21:19:12.885Z,2.22
2018-03-16T21:21:40.420Z,2.05
2018-03-16T21:24:08.779Z,2.60
2018-03-16T21:26:36.307Z,2.15
2018-03-16T21:29:03.841Z,2.40
2018-03-16T21:31:32.161Z,2.58
2018-03-16T21:33:59.741Z,2.60
2018-03-16T21:36:28.157Z,2.10
2018-03-16T21:38:55.707Z,2.50
2018-03-16T21:41:23.971Z,3.30
2018-03-16T21:43:52.092Z,2.80
2018-03-16T21:46:19.715Z,2.33
2018-03-16T21:48:47.289Z,1.90
2018-03-16T21:51:14.837Z,2.85
2018-03-16T21:53:42.373Z,1.75
2018-03-16T21:56:09.869Z,2.45
2018-03-16T21:58:37.406Z,2.05
2018-03-16T22:01:05.841Z,2.33
2018-03-16T22:03:34.108Z,2.17
2018-03-16T22:06:01.639Z,2.50
2018-03-16T22:08:29.343Z,2.45
2018-03-16T22:10:57.721Z,2.55
2018-03-16T22:13:25.235Z,2.92
2018-03-16T22:15:52.854Z,1.45
2018-03-16T22:18:20.403Z,2.78
2018-03-16T22:20:47.945Z,2.12
2018-03-16T22:23:15.443Z,2.35
2018-03-16T22:25:42.971Z,1.42
2018-03-16T22:28:10.525Z,1.95
2018-03-16T22:30:38.037Z,1.92
2018-03-16T22:33:06.330Z,2.10
2018-03-16T22:35:36.518Z,2.75
2018-03-16T22:38:04.024Z,2.28
2018-03-16T22:40:32.359Z,2.08
2018-03-16T22:42:59.855Z,2.35
2018-03-16T22:45:28.130Z,2.72
2018-03-16T22:47:56.614Z,2.15
2018-03-16T22:50:24.113Z,2.67
2018-03-16T22:52:51.889Z,2.17
2018-03-16T22:55:20.055Z,3.30
2018-03-16T22:57:48.351Z,2.70
2018-03-16T23:00:19.976Z,2.53
2018-03-16T23:02:48.259Z,2.33
2018-03-16T23:05:16.543Z,2.33
2018-03-16T23:07:44.839Z,1.98
2018-03-16T23:10:12.981Z,2.55
2018-03-16T23:12:40.510Z,2.10
2018-03-16T23:15:08.049Z,2.33
2018-03-16T23:17:35.586Z,2.20
2018-03-16T23:20:04.103Z,2.50
2018-03-16T23:22:31.658Z,2.20
2018-03-16T23:24:59.139Z,1.75
2018-03-16T23:27:26.726Z,3.05
2018-03-16T23:29:54.256Z,2.05
2018-03-16T23:32:21.792Z,2.55
2018-03-16T23:34:50.045Z,2.00
2018-03-16T23:37:18.327Z,1.50
2018-03-16T23:39:45.992Z,2.15
2018-03-16T23:42:13.494Z,2.15
2018-03-16T23:44:41.751Z,2.37
2018-03-16T23:47:10.043Z,1.77
2018-03-16T23:49:38.306Z,2.17
2018-03-16T23:52:05.818Z,1.90
2018-03-16T23:54:34.944Z,2.42
2018-03-16T23:57:02.468Z,2.10
2018-03-16T23:59:29.975Z,2.25
